sensor_id;sensor_type;location;lat;lon;timestamp;P1;durP1;ratioP1;P2;durP2;ratioP2
16837;SDS011;19510;54.486;9.046;2023-03-01T05:36:52;24.03;;;3.90;;
16837;SDS011;19510;54.486;9.046;2023-03-01T05:39:19;25.40;;;3.77;;
16837;SDS011;19510;54.486;9.046;2023-03-01T05:41:51;19.20;;;4.13;;
16837;SDS011;19510;54.486;9.046;2023-03-01T05:44:21;27.90;;;3.57;;
16837;SDS011;19510;54.486;9.046;2023-03-01T05:46:48;26.27;;;4.20;;
16837;SDS011;19510;54.486;9.046;2023-03-01T05:49:14;22.20;;;4.00;;
16837;SDS011;19510;54.486;9.046;2023-03-01T05:51:41;11.37;;;3.70;;
16837;SDS011;19510;54.486;9.046;2023-03-01T05:57:07;28.80;;;4.17;;
16837;SDS011;19510;54.486;9.046;2023-03-01T05:59:32;17.17;;;3.60;;
16837;SDS011;19510;54.486;9.046;2023-03-01T06:01:58;18.30;;;3.73;;
16837;SDS011;19510;54.486;9.046;2023-03-01T06:10:17;20.10;;;3.27;;
16837;SDS011;19510;54.486;9.046;2023-03-01T06:12:43;16.37;;;3.40;;
16837;SDS011;19510;54.486;9.046;2023-03-01T06:15:10;14.27;;;3.20;;
16837;SDS011;19510;54.486;9.046;2023-03-01T06:17:40;23.03;;;3.07;;
16837;SDS011;19510;54.486;9.046;2023-03-01T06:23:31;17.43;;;4.47;;
16837;SDS011;19510;54.486;9.046;2023-03-01T06:26:17;15.33;;;3.43;;
16837;SDS011;19510;54.486;9.046;2023-03-01T06:32:07;28.67;;;3.80;;
16837;SDS011;19510;54.486;9.046;2023-03-01T06:34:33;17.63;;;3.73;;
16837;SDS011;19510;54.486;9.046;2023-03-01T06:37:02;13.43;;;3.80;;
16837;SDS011;19510;54.486;9.046;2023-03-01T06:39:36;9.07;;;3.00;;
16837;SDS011;19510;54.486;9.046;2023-03-01T06:42:15;17.97;;;2.93;;
16837;SDS011;19510;54.486;9.046;2023-03-01T06:44:45;7.30;;;2.93;;
16837;SDS011;19510;54.486;9.046;2023-03-01T06:47:11;6.93;;;2.40;;
16837;SDS011;19510;54.486;9.046;2023-03-01T06:49:37;18.67;;;3.13;;
16837;SDS011;19510;54.486;9.046;2023-03-01T06:52:03;6.23;;;2.67;;
16837;SDS011;19510;54.486;9.046;2023-03-01T06:54:32;11.80;;;3.30;;
16837;SDS011;19510;54.486;9.046;2023-03-01T06:56:59;11.57;;;3.70;;
16837;SDS011;19510;54.486;9.046;2023-03-01T06:59:25;11.00;;;3.73;;
16837;SDS011;19510;54.486;9.046;2023-03-01T07:01:51;11.70;;;3.50;;
16837;SDS011;19510;54.486;9.046;2023-03-01T07:04:17;10.00;;;2.97;;
16837;SDS011;19510;54.486;9.046;2023-03-01T07:06:42;11.07;;;3.10;;
16837;SDS011;19510;54.486;9.046;2023-03-01T07:09:08;4.57;;;2.30;;
16837;SDS011;19510;54.486;9.046;2023-03-01T07:11:34;3.40;;;2.27;;
16837;SDS011;19510;54.486;9.046;2023-03-01T07:14:00;7.93;;;3.20;;
16837;SDS011;19510;54.486;9.046;2023-03-01T07:16:25;8.27;;;2.50;;
16837;SDS011;19510;54.486;9.046;2023-03-01T07:18:51;5.20;;;2.33;;
16837;SDS011;19510;54.486;9.046;2023-03-01T07:21:17;7.13;;;2.37;;
16837;SDS011;19510;54.486;9.046;2023-03-01T07:23:42;5.30;;;2.57;;
16837;SDS011;19510;54.486;9.046;2023-03-01T07:26:08;4.30;;;2.30;;
16837;SDS011;19510;54.486;9.046;2023-03-01T07:28:34;5.50;;;2.37;;
16837;SDS011;19510;54.486;9.046;2023-03-01T07:31:01;4.30;;;2.47;;
16837;SDS011;19510;54.486;9.046;2023-03-01T07:33:28;3.87;;;2.10;;
16837;SDS011;19510;54.486;9.046;2023-03-01T07:36:00;8.17;;;2.60;;
16837;SDS011;19510;54.486;9.046;2023-03-01T07:38:27;2.87;;;1.63;;
16837;SDS011;19510;54.486;9.046;2023-03-01T07:40:57;2.97;;;2.10;;
16837;SDS011;19510;54.486;9.046;2023-03-01T07:43:27;3.73;;;2.17;;
16837;SDS011;19510;54.486;9.046;2023-03-01T07:45:53;3.53;;;2.30;;
16837;SDS011;19510;54.486;9.046;2023-03-01T07:48:19;3.87;;;2.23;;
16837;SDS011;19510;54.486;9.046;2023-03-01T07:50:45;4.23;;;2.30;;
16837;SDS011;19510;54.486;9.046;2023-03-01T07:53:10;2.30;;;1.53;;
16837;SDS011;19510;54.486;9.046;2023-03-01T07:55:37;3.60;;;1.73;;
16837;SDS011;19510;54.486;9.046;2023-03-01T07:58:03;3.17;;;2.13;;
16837;SDS011;19510;54.486;9.046;2023-03-01T08:00:29;4.07;;;1.90;;
16837;SDS011;19510;54.486;9.046;2023-03-01T08:02:58;4.47;;;2.00;;
16837;SDS011;19510;54.486;9.046;2023-03-01T08:05:44;4.10;;;1.93;;
16837;SDS011;19510;54.486;9.046;2023-03-01T08:08:37;5.30;;;2.57;;
16837;SDS011;19510;54.486;9.046;2023-03-01T08:11:03;6.27;;;2.73;;
16837;SDS011;19510;54.486;9.046;2023-03-01T08:13:30;3.87;;;2.17;;
16837;SDS011;19510;54.486;9.046;2023-03-01T08:16:02;7.57;;;1.70;;
16837;SDS011;19510;54.486;9.046;2023-03-01T08:18:29;3.60;;;2.30;;
16837;SDS011;19510;54.486;9.046;2023-03-01T08:20:55;4.13;;;2.23;;
16837;SDS011;19510;54.486;9.046;2023-03-01T08:23:26;4.83;;;2.50;;
16837;SDS011;19510;54.486;9.046;2023-03-01T08:25:51;3.90;;;2.20;;
16837;SDS011;19510;54.486;9.046;2023-03-01T08:28:17;4.00;;;2.13;;
16837;SDS011;19510;54.486;9.046;2023-03-01T08:30:43;3.60;;;2.33;;
16837;SDS011;19510;54.486;9.046;2023-03-01T08:33:09;6.03;;;3.10;;
16837;SDS011;19510;54.486;9.046;2023-03-01T08:35:34;11.27;;;2.70;;
16837;SDS011;19510;54.486;9.046;2023-03-01T08:38:00;6.40;;;2.27;;
16837;SDS011;19510;54.486;9.046;2023-03-01T08:40:26;5.70;;;2.50;;
16837;SDS011;19510;54.486;9.046;2023-03-01T08:42:52;4.63;;;2.83;;
16837;SDS011;19510;54.486;9.046;2023-03-01T08:45:17;7.77;;;2.40;;
16837;SDS011;19510;54.486;9.046;2023-03-01T08:47:43;9.33;;;2.77;;
16837;SDS011;19510;54.486;9.046;2023-03-01T08:50:10;5.47;;;3.07;;
16837;SDS011;19510;54.486;9.046;2023-03-01T08:52:36;5.57;;;2.67;;
16837;SDS011;19510;54.486;9.046;2023-03-01T08:55:01;5.97;;;3.47;;
16837;SDS011;19510;54.486;9.046;2023-03-01T08:57:27;4.40;;;2.87;;
16837;SDS011;19510;54.486;9.046;2023-03-01T08:59:55;4.57;;;2.90;;
16837;SDS011;19510;54.486;9.046;2023-03-01T09:02:21;6.63;;;2.93;;
16837;SDS011;19510;54.486;9.046;2023-03-01T09:04:47;6.03;;;3.30;;
16837;SDS011;19510;54.486;9.046;2023-03-01T09:07:13;6.27;;;3.27;;
16837;SDS011;19510;54.486;9.046;2023-03-01T09:09:38;8.60;;;3.07;;
16837;SDS011;19510;54.486;9.046;2023-03-01T09:12:04;5.50;;;2.50;;
16837;SDS011;19510;54.486;9.046;2023-03-01T09:14:30;6.03;;;2.90;;
16837;SDS011;19510;54.486;9.046;2023-03-01T09:16:56;6.30;;;3.17;;
16837;SDS011;19510;54.486;9.046;2023-03-01T09:19:22;4.93;;;3.00;;
16837;SDS011;19510;54.486;9.046;2023-03-01T09:21:48;4.90;;;2.70;;
16837;SDS011;19510;54.486;9.046;2023-03-01T09:24:21;5.00;;;3.07;;
16837;SDS011;19510;54.486;9.046;2023-03-01T09:26:48;6.83;;;3.27;;
16837;SDS011;19510;54.486;9.046;2023-03-01T09:29:15;6.10;;;3.03;;
16837;SDS011;19510;54.486;9.046;2023-03-01T09:31:41;9.80;;;3.50;;
16837;SDS011;19510;54.486;9.046;2023-03-01T09:34:07;8.13;;;3.70;;
16837;SDS011;19510;54.486;9.046;2023-03-01T09:36:34;5.60;;;2.83;;
16837;SDS011;19510;54.486;9.046;2023-03-01T09:39:00;5.73;;;3.50;;
16837;SDS011;19510;54.486;9.046;2023-03-01T09:41:41;6.63;;;3.87;;
16837;SDS011;19510;54.486;9.046;2023-03-01T09:44:21;7.90;;;3.70;;
16837;SDS011;19510;54.486;9.046;2023-03-01T09:46:49;7.23;;;4.03;;
16837;SDS011;19510;54.486;9.046;2023-03-01T09:49:21;6.30;;;3.60;;
16837;SDS011;19510;54.486;9.046;2023-03-01T09:54:44;5.53;;;3.43;;
16837;SDS011;19510;54.486;9.046;2023-03-01T10:02:35;10.00;;;4.23;;
16837;SDS011;19510;54.486;9.046;2023-03-01T10:05:24;7.17;;;4.40;;
16837;SDS011;19510;54.486;9.046;2023-03-01T10:08:24;7.93;;;4.53;;
16837;SDS011;19510;54.486;9.046;2023-03-01T10:11:00;9.53;;;5.07;;
16837;SDS011;19510;54.486;9.046;2023-03-01T10:13:46;9.77;;;5.13;;
16837;SDS011;19510;54.486;9.046;2023-03-01T10:19:11;9.40;;;4.57;;
16837;SDS011;19510;54.486;9.046;2023-03-01T10:22:15;9.07;;;4.87;;
16837;SDS011;19510;54.486;9.046;2023-03-01T10:24:41;12.00;;;4.90;;
16837;SDS011;19510;54.486;9.046;2023-03-01T10:27:09;8.47;;;4.93;;
16837;SDS011;19510;54.486;9.046;2023-03-01T10:32:34;9.57;;;4.87;;
16837;SDS011;19510;54.486;9.046;2023-03-01T10:35:00;7.73;;;4.77;;
16837;SDS011;19510;54.486;9.046;2023-03-01T10:37:26;10.43;;;5.17;;
16837;SDS011;19510;54.486;9.046;2023-03-01T10:40:06;9.47;;;4.80;;
16837;SDS011;19510;54.486;9.046;2023-03-01T10:42:54;11.17;;;5.47;;
16837;SDS011;19510;54.486;9.046;2023-03-01T10:45:35;9.53;;;5.40;;
16837;SDS011;19510;54.486;9.046;2023-03-01T10:48:13;8.53;;;5.53;;
16837;SDS011;19510;54.486;9.046;2023-03-01T10:50:48;9.67;;;4.90;;
16837;SDS011;19510;54.486;9.046;2023-03-01T10:58:41;9.17;;;5.63;;
16837;SDS011;19510;54.486;9.046;2023-03-01T11:01:29;9.97;;;5.67;;
16837;SDS011;19510;54.486;9.046;2023-03-01T11:06:32;9.50;;;5.90;;
16837;SDS011;19510;54.486;9.046;2023-03-01T11:11:52;11.20;;;6.33;;
16837;SDS011;19510;54.486;9.046;2023-03-01T11:16:48;12.87;;;6.97;;
16837;SDS011;19510;54.486;9.046;2023-03-01T11:19:25;14.63;;;8.43;;
16837;SDS011;19510;54.486;9.046;2023-03-01T11:24:52;10.77;;;6.73;;
16837;SDS011;19510;54.486;9.046;2023-03-01T11:27:28;12.20;;;6.87;;
16837;SDS011;19510;54.486;9.046;2023-03-01T11:32:33;10.20;;;5.73;;
16837;SDS011;19510;54.486;9.046;2023-03-01T11:35:23;12.27;;;6.53;;
16837;SDS011;19510;54.486;9.046;2023-03-01T11:40:30;9.33;;;5.00;;
16837;SDS011;19510;54.486;9.046;2023-03-01T11:43:15;10.97;;;6.73;;
16837;SDS011;19510;54.486;9.046;2023-03-01T11:48:31;8.13;;;5.50;;
16837;SDS011;19510;54.486;9.046;2023-03-01T11:54:26;7.63;;;5.13;;
16837;SDS011;19510;54.486;9.046;2023-03-01T12:00:17;10.23;;;5.77;;
16837;SDS011;19510;54.486;9.046;2023-03-01T12:06:27;11.77;;;5.77;;
16837;SDS011;19510;54.486;9.046;2023-03-01T12:11:28;10.87;;;6.20;;
16837;SDS011;19510;54.486;9.046;2023-03-01T12:25:39;12.37;;;5.70;;
16837;SDS011;19510;54.486;9.046;2023-03-01T12:28:16;6.97;;;4.90;;
16837;SDS011;19510;54.486;9.046;2023-03-01T12:33:45;10.00;;;5.27;;
16837;SDS011;19510;54.486;9.046;2023-03-01T12:51:03;6.10;;;4.33;;
16837;SDS011;19510;54.486;9.046;2023-03-01T12:53:36;6.60;;;3.77;;
16837;SDS011;19510;54.486;9.046;2023-03-01T12:56:15;5.53;;;3.70;;
16837;SDS011;19510;54.486;9.046;2023-03-01T13:05:16;5.97;;;4.27;;
16837;SDS011;19510;54.486;9.046;2023-03-01T13:10:39;4.83;;;3.30;;
16837;SDS011;19510;54.486;9.046;2023-03-01T13:13:18;5.53;;;3.43;;
16837;SDS011;19510;54.486;9.046;2023-03-01T13:15:52;7.63;;;3.70;;
16837;SDS011;19510;54.486;9.046;2023-03-01T13:20:56;7.20;;;3.50;;
16837;SDS011;19510;54.486;9.046;2023-03-01T13:23:25;7.30;;;3.60;;
16837;SDS011;19510;54.486;9.046;2023-03-01T13:26:06;4.13;;;3.50;;
16837;SDS011;19510;54.486;9.046;2023-03-01T13:34:02;3.93;;;3.00;;
16837;SDS011;19510;54.486;9.046;2023-03-01T13:39:26;4.40;;;3.17;;
16837;SDS011;19510;54.486;9.046;2023-03-01T13:42:33;9.10;;;3.73;;
16837;SDS011;19510;54.486;9.046;2023-03-01T13:45:02;7.57;;;3.70;;
16837;SDS011;19510;54.486;9.046;2023-03-01T13:47:59;5.47;;;3.33;;
16837;SDS011;19510;54.486;9.046;2023-03-01T13:50:33;6.37;;;3.60;;
16837;SDS011;19510;54.486;9.046;2023-03-01T13:53:26;5.40;;;3.37;;
16837;SDS011;19510;54.486;9.046;2023-03-01T13:55:58;7.20;;;3.93;;
16837;SDS011;19510;54.486;9.046;2023-03-01T13:58:30;4.90;;;3.60;;
16837;SDS011;19510;54.486;9.046;2023-03-01T14:01:05;6.07;;;3.80;;
16837;SDS011;19510;54.486;9.046;2023-03-01T14:03:39;6.30;;;3.87;;
16837;SDS011;19510;54.486;9.046;2023-03-01T14:08:52;7.47;;;3.30;;
16837;SDS011;19510;54.486;9.046;2023-03-01T14:14:13;7.97;;;3.70;;
16837;SDS011;19510;54.486;9.046;2023-03-01T14:19:34;5.63;;;3.47;;
16837;SDS011;19510;54.486;9.046;2023-03-01T14:24:54;5.70;;;3.70;;
16837;SDS011;19510;54.486;9.046;2023-03-01T14:27:37;7.93;;;3.87;;
16837;SDS011;19510;54.486;9.046;2023-03-01T14:32:58;10.00;;;3.90;;
16837;SDS011;19510;54.486;9.046;2023-03-01T14:35:28;7.80;;;4.80;;
16837;SDS011;19510;54.486;9.046;2023-03-01T14:37:59;13.17;;;6.10;;
16837;SDS011;19510;54.486;9.046;2023-03-01T14:43:00;7.63;;;4.67;;
16837;SDS011;19510;54.486;9.046;2023-03-01T14:45:33;6.93;;;4.00;;
16837;SDS011;19510;54.486;9.046;2023-03-01T14:48:04;6.90;;;4.33;;
16837;SDS011;19510;54.486;9.046;2023-03-01T14:50:32;7.30;;;4.23;;
16837;SDS011;19510;54.486;9.046;2023-03-01T14:55:59;11.90;;;4.60;;
16837;SDS011;19510;54.486;9.046;2023-03-01T14:58:27;7.03;;;4.00;;
16837;SDS011;19510;54.486;9.046;2023-03-01T15:00:57;4.53;;;3.57;;
16837;SDS011;19510;54.486;9.046;2023-03-01T15:06:02;11.43;;;4.07;;
16837;SDS011;19510;54.486;9.046;2023-03-01T15:08:31;8.17;;;4.40;;
16837;SDS011;19510;54.486;9.046;2023-03-01T15:13:31;5.37;;;3.80;;
16837;SDS011;19510;54.486;9.046;2023-03-01T15:18:56;11.03;;;5.13;;
16837;SDS011;19510;54.486;9.046;2023-03-01T15:21:29;8.90;;;5.38;;
16837;SDS011;19510;54.486;9.046;2023-03-01T15:24:13;9.13;;;5.57;;
16837;SDS011;19510;54.486;9.046;2023-03-01T15:26:45;9.77;;;5.50;;
16837;SDS011;19510;54.486;9.046;2023-03-01T15:29:16;10.40;;;5.55;;
16837;SDS011;19510;54.486;9.046;2023-03-01T15:31:50;10.17;;;5.43;;
16837;SDS011;19510;54.486;9.046;2023-03-01T15:36:52;10.47;;;5.43;;
16837;SDS011;19510;54.486;9.046;2023-03-01T15:40:01;13.50;;;5.80;;
16837;SDS011;19510;54.486;9.046;2023-03-01T15:47:49;13.40;;;5.80;;
16837;SDS011;19510;54.486;9.046;2023-03-01T15:50:24;12.17;;;5.33;;
16837;SDS011;19510;54.486;9.046;2023-03-01T15:52:52;12.50;;;6.10;;
16837;SDS011;19510;54.486;9.046;2023-03-01T15:55:23;11.40;;;6.03;;
16837;SDS011;19510;54.486;9.046;2023-03-01T15:58:28;10.37;;;5.57;;
16837;SDS011;19510;54.486;9.046;2023-03-01T16:00:50;13.13;;;6.53;;
16837;SDS011;19510;54.486;9.046;2023-03-01T16:03:21;11.67;;;6.27;;
16837;SDS011;19510;54.486;9.046;2023-03-01T16:05:47;12.80;;;6.57;;
16837;SDS011;19510;54.486;9.046;2023-03-01T16:08:14;13.77;;;6.40;;
16837;SDS011;19510;54.486;9.046;2023-03-01T16:10:41;11.70;;;6.00;;
16837;SDS011;19510;54.486;9.046;2023-03-01T16:13:37;11.53;;;5.87;;
16837;SDS011;19510;54.486;9.046;2023-03-01T16:16:03;13.47;;;6.47;;
16837;SDS011;19510;54.486;9.046;2023-03-01T16:18:29;11.40;;;6.40;;
16837;SDS011;19510;54.486;9.046;2023-03-01T16:20:54;13.47;;;7.03;;
16837;SDS011;19510;54.486;9.046;2023-03-01T16:23:23;12.63;;;6.50;;
16837;SDS011;19510;54.486;9.046;2023-03-01T16:25:50;14.83;;;6.93;;
16837;SDS011;19510;54.486;9.046;2023-03-01T16:28:16;12.33;;;6.37;;
16837;SDS011;19510;54.486;9.046;2023-03-01T16:30:47;10.87;;;6.10;;
16837;SDS011;19510;54.486;9.046;2023-03-01T16:33:14;14.63;;;6.33;;
16837;SDS011;19510;54.486;9.046;2023-03-01T16:35:43;13.07;;;6.73;;
16837;SDS011;19510;54.486;9.046;2023-03-01T16:38:09;11.90;;;6.47;;
16837;SDS011;19510;54.486;9.046;2023-03-01T16:40:35;11.77;;;5.87;;
16837;SDS011;19510;54.486;9.046;2023-03-01T16:43:06;11.37;;;6.23;;
16837;SDS011;19510;54.486;9.046;2023-03-01T16:45:34;15.83;;;6.80;;
16837;SDS011;19510;54.486;9.046;2023-03-01T16:48:01;14.00;;;7.30;;
16837;SDS011;19510;54.486;9.046;2023-03-01T16:50:28;13.33;;;6.77;;
16837;SDS011;19510;54.486;9.046;2023-03-01T16:52:53;14.33;;;7.20;;
16837;SDS011;19510;54.486;9.046;2023-03-01T16:55:19;15.37;;;7.43;;
16837;SDS011;19510;54.486;9.046;2023-03-01T16:57:50;13.50;;;7.83;;
16837;SDS011;19510;54.486;9.046;2023-03-01T17:00:18;15.70;;;7.60;;
16837;SDS011;19510;54.486;9.046;2023-03-01T17:02:45;14.57;;;7.93;;
16837;SDS011;19510;54.486;9.046;2023-03-01T17:05:12;17.80;;;8.40;;
16837;SDS011;19510;54.486;9.046;2023-03-01T17:07:48;16.70;;;8.10;;
16837;SDS011;19510;54.486;9.046;2023-03-01T17:10:16;15.10;;;8.03;;
16837;SDS011;19510;54.486;9.046;2023-03-01T17:12:42;16.13;;;8.50;;
16837;SDS011;19510;54.486;9.046;2023-03-01T17:15:15;14.47;;;7.33;;
16837;SDS011;19510;54.486;9.046;2023-03-01T17:17:40;16.90;;;7.93;;
16837;SDS011;19510;54.486;9.046;2023-03-01T17:20:09;17.83;;;9.13;;
16837;SDS011;19510;54.486;9.046;2023-03-01T17:22:35;16.07;;;8.33;;
16837;SDS011;19510;54.486;9.046;2023-03-01T17:25:01;18.97;;;8.87;;
16837;SDS011;19510;54.486;9.046;2023-03-01T17:27:32;19.57;;;10.20;;
16837;SDS011;19510;54.486;9.046;2023-03-01T17:29:59;37.27;;;20.33;;
16837;SDS011;19510;54.486;9.046;2023-03-01T17:32:25;16.77;;;8.53;;
16837;SDS011;19510;54.486;9.046;2023-03-01T17:34:51;15.50;;;8.70;;
16837;SDS011;19510;54.486;9.046;2023-03-01T17:37:16;16.03;;;7.60;;
16837;SDS011;19510;54.486;9.046;2023-03-01T17:39:42;19.53;;;9.93;;
16837;SDS011;19510;54.486;9.046;2023-03-01T17:42:08;17.97;;;8.87;;
16837;SDS011;19510;54.486;9.046;2023-03-01T17:44:34;17.50;;;9.50;;
16837;SDS011;19510;54.486;9.046;2023-03-01T17:47:00;19.70;;;8.73;;
16837;SDS011;19510;54.486;9.046;2023-03-01T17:49:32;18.77;;;10.00;;
16837;SDS011;19510;54.486;9.046;2023-03-01T17:52:00;21.27;;;9.77;;
16837;SDS011;19510;54.486;9.046;2023-03-01T17:54:26;21.53;;;10.60;;
16837;SDS011;19510;54.486;9.046;2023-03-01T17:56:52;19.37;;;10.07;;
16837;SDS011;19510;54.486;9.046;2023-03-01T17:59:20;16.97;;;9.17;;
16837;SDS011;19510;54.486;9.046;2023-03-01T18:01:46;18.50;;;9.97;;
16837;SDS011;19510;54.486;9.046;2023-03-01T18:04:13;22.87;;;11.93;;
16837;SDS011;19510;54.486;9.046;2023-03-01T18:06:42;20.43;;;9.90;;
16837;SDS011;19510;54.486;9.046;2023-03-01T18:09:08;20.07;;;10.93;;
16837;SDS011;19510;54.486;9.046;2023-03-01T18:11:34;23.10;;;10.83;;
16837;SDS011;19510;54.486;9.046;2023-03-01T18:14:00;23.33;;;12.10;;
16837;SDS011;19510;54.486;9.046;2023-03-01T18:16:26;25.97;;;12.70;;
16837;SDS011;19510;54.486;9.046;2023-03-01T18:18:55;24.80;;;11.77;;
16837;SDS011;19510;54.486;9.046;2023-03-01T18:21:24;24.47;;;12.37;;
16837;SDS011;19510;54.486;9.046;2023-03-01T18:23:52;22.77;;;11.93;;
16837;SDS011;19510;54.486;9.046;2023-03-01T18:26:19;23.23;;;13.17;;
16837;SDS011;19510;54.486;9.046;2023-03-01T18:28:46;25.83;;;13.37;;
16837;SDS011;19510;54.486;9.046;2023-03-01T18:31:15;24.17;;;11.97;;
16837;SDS011;19510;54.486;9.046;2023-03-01T18:33:42;25.43;;;12.40;;
16837;SDS011;19510;54.486;9.046;2023-03-01T18:36:17;22.40;;;12.63;;
16837;SDS011;19510;54.486;9.046;2023-03-01T18:38:45;27.33;;;12.57;;
16837;SDS011;19510;54.486;9.046;2023-03-01T18:41:13;28.63;;;14.63;;
16837;SDS011;19510;54.486;9.046;2023-03-01T18:43:41;28.03;;;13.73;;
16837;SDS011;19510;54.486;9.046;2023-03-01T18:46:07;29.93;;;14.33;;
16837;SDS011;19510;54.486;9.046;2023-03-01T18:48:33;30.80;;;14.47;;
16837;SDS011;19510;54.486;9.046;2023-03-01T18:51:09;27.67;;;14.37;;
16837;SDS011;19510;54.486;9.046;2023-03-01T18:53:37;31.63;;;16.07;;
16837;SDS011;19510;54.486;9.046;2023-03-01T18:56:04;27.87;;;14.57;;
16837;SDS011;19510;54.486;9.046;2023-03-01T18:58:32;28.27;;;13.53;;
16837;SDS011;19510;54.486;9.046;2023-03-01T19:01:02;24.93;;;12.37;;
16837;SDS011;19510;54.486;9.046;2023-03-01T19:03:33;24.33;;;12.93;;
16837;SDS011;19510;54.486;9.046;2023-03-01T19:05:59;34.20;;;15.97;;
16837;SDS011;19510;54.486;9.046;2023-03-01T19:08:26;26.20;;;12.80;;
16837;SDS011;19510;54.486;9.046;2023-03-01T19:11:03;30.47;;;13.77;;
16837;SDS011;19510;54.486;9.046;2023-03-01T19:13:31;27.20;;;12.43;;
16837;SDS011;19510;54.486;9.046;2023-03-01T19:16:19;22.87;;;11.93;;
16837;SDS011;19510;54.486;9.046;2023-03-01T19:18:48;23.40;;;11.10;;
16837;SDS011;19510;54.486;9.046;2023-03-01T19:21:19;20.10;;;10.63;;
16837;SDS011;19510;54.486;9.046;2023-03-01T19:23:46;20.23;;;10.23;;
16837;SDS011;19510;54.486;9.046;2023-03-01T19:26:18;23.17;;;11.70;;
16837;SDS011;19510;54.486;9.046;2023-03-01T19:28:47;27.27;;;12.80;;
16837;SDS011;19510;54.486;9.046;2023-03-01T19:31:19;22.87;;;12.43;;
16837;SDS011;19510;54.486;9.046;2023-03-01T19:33:48;40.87;;;19.20;;
16837;SDS011;19510;54.486;9.046;2023-03-01T19:36:14;21.80;;;11.27;;
16837;SDS011;19510;54.486;9.046;2023-03-01T19:38:41;22.90;;;11.20;;
16837;SDS011;19510;54.486;9.046;2023-03-01T19:41:11;34.17;;;17.60;;
16837;SDS011;19510;54.486;9.046;2023-03-01T19:43:40;24.03;;;12.63;;
16837;SDS011;19510;54.486;9.046;2023-03-01T19:46:09;21.03;;;10.97;;
16837;SDS011;19510;54.486;9.046;2023-03-01T19:48:35;24.37;;;12.13;;
16837;SDS011;19510;54.486;9.046;2023-03-01T19:51:04;21.53;;;11.17;;
16837;SDS011;19510;54.486;9.046;2023-03-01T19:53:30;21.17;;;10.93;;
16837;SDS011;19510;54.486;9.046;2023-03-01T19:55:57;21.37;;;10.77;;
16837;SDS011;19510;54.486;9.046;2023-03-01T19:58:24;24.70;;;11.40;;
16837;SDS011;19510;54.486;9.046;2023-03-01T20:00:51;20.30;;;10.20;;
16837;SDS011;19510;54.486;9.046;2023-03-01T20:03:23;19.73;;;10.50;;
16837;SDS011;19510;54.486;9.046;2023-03-01T20:05:50;20.10;;;10.40;;
16837;SDS011;19510;54.486;9.046;2023-03-01T20:08:16;22.83;;;10.63;;
16837;SDS011;19510;54.486;9.046;2023-03-01T20:10:42;25.43;;;11.63;;
16837;SDS011;19510;54.486;9.046;2023-03-01T20:13:10;22.33;;;11.57;;
16837;SDS011;19510;54.486;9.046;2023-03-01T20:15:38;27.33;;;12.50;;
16837;SDS011;19510;54.486;9.046;2023-03-01T20:18:05;27.67;;;12.87;;
16837;SDS011;19510;54.486;9.046;2023-03-01T20:20:36;23.17;;;11.93;;
16837;SDS011;19510;54.486;9.046;2023-03-01T20:23:02;31.20;;;15.33;;
16837;SDS011;19510;54.486;9.046;2023-03-01T20:25:28;27.57;;;13.63;;
16837;SDS011;19510;54.486;9.046;2023-03-01T20:27:56;28.90;;;13.00;;
16837;SDS011;19510;54.486;9.046;2023-03-01T20:30:24;25.90;;;12.50;;
16837;SDS011;19510;54.486;9.046;2023-03-01T20:32:50;21.17;;;11.70;;
16837;SDS011;19510;54.486;9.046;2023-03-01T20:35:15;27.37;;;12.33;;
16837;SDS011;19510;54.486;9.046;2023-03-01T20:37:46;25.37;;;12.97;;
16837;SDS011;19510;54.486;9.046;2023-03-01T20:40:17;26.83;;;12.63;;
16837;SDS011;19510;54.486;9.046;2023-03-01T20:42:50;25.50;;;12.57;;
16837;SDS011;19510;54.486;9.046;2023-03-01T20:45:18;24.77;;;11.33;;
16837;SDS011;19510;54.486;9.046;2023-03-01T20:47:45;22.40;;;11.47;;
16837;SDS011;19510;54.486;9.046;2023-03-01T20:50:12;26.80;;;12.03;;
16837;SDS011;19510;54.486;9.046;2023-03-01T20:52:38;23.87;;;11.77;;
16837;SDS011;19510;54.486;9.046;2023-03-01T20:55:06;23.23;;;11.27;;
16837;SDS011;19510;54.486;9.046;2023-03-01T20:57:32;23.37;;;11.20;;
16837;SDS011;19510;54.486;9.046;2023-03-01T20:59:59;27.90;;;12.17;;
16837;SDS011;19510;54.486;9.046;2023-03-01T21:02:25;23.43;;;11.00;;
16837;SDS011;19510;54.486;9.046;2023-03-01T21:04:53;25.27;;;11.40;;
16837;SDS011;19510;54.486;9.046;2023-03-01T21:07:19;25.90;;;14.13;;
16837;SDS011;19510;54.486;9.046;2023-03-01T21:09:44;27.90;;;12.07;;
16837;SDS011;19510;54.486;9.046;2023-03-01T21:12:13;21.50;;;10.53;;
16837;SDS011;19510;54.486;9.046;2023-03-01T21:14:39;27.70;;;12.63;;
16837;SDS011;19510;54.486;9.046;2023-03-01T21:17:11;22.83;;;11.27;;
16837;SDS011;19510;54.486;9.046;2023-03-01T21:19:39;23.10;;;11.53;;
16837;SDS011;19510;54.486;9.046;2023-03-01T21:22:08;22.07;;;11.10;;
16837;SDS011;19510;54.486;9.046;2023-03-01T21:24:38;22.07;;;11.13;;
16837;SDS011;19510;54.486;9.046;2023-03-01T21:27:04;27.00;;;11.93;;
16837;SDS011;19510;54.486;9.046;2023-03-01T21:29:33;26.23;;;12.20;;
16837;SDS011;19510;54.486;9.046;2023-03-01T21:32:06;24.40;;;12.67;;
16837;SDS011;19510;54.486;9.046;2023-03-01T21:34:33;21.80;;;10.57;;
16837;SDS011;19510;54.486;9.046;2023-03-01T21:37:00;20.33;;;10.63;;
16837;SDS011;19510;54.486;9.046;2023-03-01T21:39:29;22.63;;;10.03;;
16837;SDS011;19510;54.486;9.046;2023-03-01T21:41:56;22.07;;;10.90;;
16837;SDS011;19510;54.486;9.046;2023-03-01T21:44:24;24.97;;;11.17;;
16837;SDS011;19510;54.486;9.046;2023-03-01T21:46:51;20.40;;;11.13;;
16837;SDS011;19510;54.486;9.046;2023-03-01T21:49:18;23.00;;;10.73;;
16837;SDS011;19510;54.486;9.046;2023-03-01T21:51:44;23.30;;;10.87;;
16837;SDS011;19510;54.486;9.046;2023-03-01T21:54:11;22.97;;;11.07;;
16837;SDS011;19510;54.486;9.046;2023-03-01T21:56:41;21.93;;;10.97;;
16837;SDS011;19510;54.486;9.046;2023-03-01T21:59:09;34.10;;;11.13;;
16837;SDS011;19510;54.486;9.046;2023-03-01T22:01:42;23.80;;;11.40;;
16837;SDS011;19510;54.486;9.046;2023-03-01T22:04:11;27.13;;;10.93;;
16837;SDS011;19510;54.486;9.046;2023-03-01T22:06:38;23.50;;;11.63;;
16837;SDS011;19510;54.486;9.046;2023-03-01T22:09:20;24.20;;;11.30;;
16837;SDS011;19510;54.486;9.046;2023-03-01T22:11:47;22.93;;;11.97;;
16837;SDS011;19510;54.486;9.046;2023-03-01T22:14:15;20.97;;;10.87;;
16837;SDS011;19510;54.486;9.046;2023-03-01T22:16:42;22.40;;;11.93;;
16837;SDS011;19510;54.486;9.046;2023-03-01T22:19:09;23.37;;;10.50;;
16837;SDS011;19510;54.486;9.046;2023-03-01T22:21:44;23.10;;;10.93;;
16837;SDS011;19510;54.486;9.046;2023-03-01T22:24:13;22.07;;;11.00;;
16837;SDS011;19510;54.486;9.046;2023-03-01T22:26:43;23.60;;;11.50;;
16837;SDS011;19510;54.486;9.046;2023-03-01T22:29:11;21.63;;;10.63;;
16837;SDS011;19510;54.486;9.046;2023-03-01T22:31:44;22.20;;;10.63;;
16837;SDS011;19510;54.486;9.046;2023-03-01T22:34:10;23.10;;;11.13;;
16837;SDS011;19510;54.486;9.046;2023-03-01T22:36:39;19.73;;;10.47;;
16837;SDS011;19510;54.486;9.046;2023-03-01T22:39:05;30.00;;;11.50;;
16837;SDS011;19510;54.486;9.046;2023-03-01T22:41:32;32.37;;;11.83;;
16837;SDS011;19510;54.486;9.046;2023-03-01T22:44:05;21.50;;;11.20;;
16837;SDS011;19510;54.486;9.046;2023-03-01T22:46:31;21.73;;;10.93;;
16837;SDS011;19510;54.486;9.046;2023-03-01T22:48:57;24.47;;;11.47;;
16837;SDS011;19510;54.486;9.046;2023-03-01T22:51:23;27.27;;;10.33;;
16837;SDS011;19510;54.486;9.046;2023-03-01T22:53:54;22.83;;;10.97;;
16837;SDS011;19510;54.486;9.046;2023-03-01T22:56:21;22.63;;;11.53;;
16837;SDS011;19510;54.486;9.046;2023-03-01T22:58:49;26.57;;;12.53;;